Time;durP1;ratioP1;P1;durP2;ratioP2;P2;SDS_P1;SDS_P2;PMS_P1;PMS_P2;Temp;Humidity;BMP_temperature;BMP_pressure;BME280_temperature;BME280_humidity;BME280_pressure;Samples;Min_cycle;Max_cycle;Signal;HPM_P1;HPM_P2
2021/05/19 00:02:09;;;;;;;1.30;0.70;;;;;;;16.94;41.26;99267.53;4899323;29;20032;-81
2021/05/19 00:04:35;;;;;;;1.75;0.50;;;;;;;16.96;41.38;99271.63;4899386;29;20025;-76
2021/05/19 00:07:00;;;;;;;2.10;0.75;;;;;;;17.00;41.63;99291.47;4899407;29;20029;-76
2021/05/19 00:09:26;;;;;;;3.10;0.50;;;;;;;16.94;42.01;99275.53;4899421;29;20060;-76
2021/05/19 00:11:52;;;;;;;4.70;0.73;;;;;;;16.61;42.02;99210.09;4899402;29;20355;-76
2021/05/19 00:14:18;;;;;;;1.25;0.50;;;;;;;17.09;42.23;99284.78;4899211;29;20039;-76
2021/05/19 00:16:47;;;;;;;5.03;0.90;;;;;;;17.13;42.30;99296.63;4898246;29;20066;-76
2021/05/19 00:19:12;;;;;;;2.88;0.85;;;;;;;16.63;42.15;99213.38;4899166;29;20428;-76
2021/05/19 00:21:38;;;;;;;1.10;0.70;;;;;;;16.98;42.48;99272.19;4899095;29;20025;-76
2021/05/19 00:24:04;;;;;;;1.67;0.70;;;;;;;17.04;42.63;99295.31;4899371;29;20111;-76
2021/05/19 00:26:30;;;;;;;1.15;0.70;;;;;;;16.96;42.94;99273.47;4899204;29;20454;-76
2021/05/19 00:28:56;;;;;;;2.10;0.52;;;;;;;17.04;42.60;99283.81;4882567;29;20036;-76
2021/05/19 00:31:23;;;;;;;1.98;0.65;;;;;;;16.79;43.08;99254.63;4899153;29;20107;-76
2021/05/19 00:33:48;;;;;;;2.38;0.73;;;;;;;17.00;42.77;99283.44;4898114;29;20024;-76
2021/05/19 00:36:14;;;;;;;1.30;0.50;;;;;;;16.91;42.68;99271.47;4899257;29;20031;-76
2021/05/19 00:38:39;;;;;;;1.27;0.70;;;;;;;16.87;42.75;99272.97;4899031;29;20040;-75
2021/05/19 00:41:09;;;;;;;1.08;0.50;;;;;;;16.84;42.90;99294.75;4898112;29;20097;-76
2021/05/19 00:43:35;;;;;;;1.67;0.60;;;;;;;16.59;42.47;99249.50;4898909;29;20432;-76
2021/05/19 00:46:00;;;;;;;1.27;0.40;;;;;;;16.86;42.96;99294.53;4899148;29;20028;-76
2021/05/19 00:48:26;;;;;;;1.88;0.50;;;;;;;16.77;43.01;99286.84;4897289;29;20020;-75
2021/05/19 00:50:51;;;;;;;2.28;0.77;;;;;;;16.70;43.04;99287.94;4900652;29;20031;-76
2021/05/19 00:53:17;;;;;;;2.80;0.60;;;;;;;16.73;42.62;99290.16;4902751;29;20427;-79
2021/05/19 00:55:42;;;;;;;0.70;0.60;;;;;;;16.76;43.16;99290.53;4902259;29;20444;-76
2021/05/19 00:58:08;;;;;;;0.68;0.50;;;;;;;16.76;43.12;99290.53;4902733;29;20033;-76
2021/05/19 01:00:35;;;;;;;1.25;0.60;;;;;;;16.56;43.02;99267.78;4901339;29;20074;-84
2021/05/19 01:03:01;;;;;;;0.90;0.50;;;;;;;16.39;42.76;99267.59;4902291;29;20025;-75
2021/05/19 01:11:10;;;;;;;1.58;0.70;;;;;;;16.71;42.86;99308.25;4902456;29;20036;-76
2021/05/19 01:13:40;;;;;;;2.53;0.57;;;;;;;16.62;42.97;99294.38;4902139;29;20032;-75
2021/05/19 01:16:05;;;;;;;2.33;0.95;;;;;;;16.55;43.42;99285.63;4902231;29;20435;-76
2021/05/19 01:18:31;;;;;;;1.95;0.80;;;;;;;16.61;43.47;99295.41;4901929;29;20111;-75
2021/05/19 01:20:57;;;;;;;1.58;0.80;;;;;;;16.46;43.64;99298.44;4900969;29;20085;-76
2021/05/19 01:23:27;;;;;;;3.05;1.00;;;;;;;15.91;43.90;99222.19;4900809;29;20028;-76
2021/05/19 01:25:53;;;;;;;2.50;0.82;;;;;;;16.28;44.08;99292.25;4901963;29;20328;-76
2021/05/19 01:28:18;;;;;;;6.22;1.27;;;;;;;15.96;44.32;99217.00;4901892;29;20103;-77
2021/05/19 01:30:43;;;;;;;2.65;0.80;;;;;;;16.37;44.63;99294.44;4902108;29;20088;-76
2021/05/19 01:33:09;;;;;;;2.40;0.90;;;;;;;16.40;44.46;99283.34;4901936;29;20024;-77
2021/05/19 01:35:34;;;;;;;3.10;1.10;;;;;;;16.22;44.57;99251.34;4901777;29;20088;-77
2021/05/19 01:38:00;;;;;;;2.60;0.80;;;;;;;16.32;44.69;99280.13;4901896;29;20486;-75
2021/05/19 01:40:27;;;;;;;3.85;0.93;;;;;;;16.36;44.30;99281.34;4901831;29;20025;-76
2021/05/19 01:42:53;;;;;;;2.13;0.77;;;;;;;16.38;44.13;99284.59;4901773;29;20091;-75
2021/05/19 01:45:23;;;;;;;1.90;0.60;;;;;;;16.27;44.14;99274.66;4901740;29;20029;-76
2021/05/19 01:47:51;;;;;;;1.00;0.63;;;;;;;16.06;43.75;99249.25;4901768;29;20028;-76
2021/05/19 01:50:21;;;;;;;2.03;0.70;;;;;;;16.20;43.89;99275.53;4900489;29;20025;-77
2021/05/19 01:52:47;;;;;;;1.63;0.65;;;;;;;16.10;44.28;99274.41;4900418;29;20458;-78
2021/05/19 01:55:15;;;;;;;5.75;0.80;;;;;;;15.98;44.47;99273.50;4900373;29;20047;-75
2021/05/19 01:57:45;;;;;;;1.98;0.70;;;;;;;15.94;44.31;99273.13;4900150;29;20056;-75
2021/05/19 02:00:13;;;;;;;2.47;0.70;;;;;;;15.78;44.52;99271.03;4900466;29;20032;-76
2021/05/19 02:02:39;;;;;;;2.35;0.57;;;;;;;15.71;44.84;99276.41;4899458;29;20028;-76
2021/05/19 02:05:05;;;;;;;0.60;0.60;;;;;;;15.72;44.95;99286.03;4900377;29;20355;-75
2021/05/19 02:07:34;;;;;;;2.50;0.70;;;;;;;15.67;45.07;99283.22;4899109;29;20039;-76
2021/05/19 02:10:00;;;;;;;4.22;0.60;;;;;;;15.64;45.10;99288.16;4900223;29;20031;-76
2021/05/19 02:12:25;;;;;;;1.58;0.90;;;;;;;15.11;45.31;99214.81;4898945;29;20024;-76
2021/05/19 02:14:50;;;;;;;2.95;1.08;;;;;;;15.24;45.29;99238.66;4900253;29;20029;-76
2021/05/19 02:17:16;;;;;;;5.72;0.88;;;;;;;15.23;45.67;99252.97;4900127;29;20031;-76
2021/05/19 02:19:41;;;;;;;1.85;0.80;;;;;;;15.21;45.77;99249.72;4899930;29;20059;-76
2021/05/19 02:22:07;;;;;;;3.63;1.02;;;;;;;15.39;45.55;99280.91;4883519;29;20107;-76
2021/05/19 02:24:32;;;;;;;2.63;0.60;;;;;;;14.82;45.60;99191.47;4899970;29;20048;-82
2021/05/19 02:26:58;;;;;;;1.20;0.60;;;;;;;15.31;45.49;99273.19;4900010;29;20355;-87
2021/05/19 02:29:24;;;;;;;2.20;0.80;;;;;;;15.04;45.55;99245.94;4899870;29;20093;-87
2021/05/19 02:31:50;;;;;;;2.40;0.57;;;;;;;14.78;45.87;99217.66;4900121;29;20025;-87
2021/05/19 02:34:15;;;;;;;1.63;0.77;;;;;;;14.99;45.85;99250.28;4900130;29;20450;-84
2021/05/19 02:36:41;;;;;;;2.38;0.73;;;;;;;14.75;45.86;99220.72;4899948;29;20025;-87
2021/05/19 02:39:10;;;;;;;0.90;0.75;;;;;;;15.16;45.81;99288.63;4900015;29;20045;-77
2021/05/19 02:41:37;;;;;;;3.13;0.60;;;;;;;14.92;45.87;99261.75;4899668;29;20029;-76
2021/05/19 02:44:04;;;;;;;2.35;0.68;;;;;;;14.68;46.16;99224.44;4899535;29;20017;-77
2021/05/19 02:46:29;;;;;;;3.22;0.65;;;;;;;14.57;46.28;99205.50;4899583;29;20451;-79
2021/05/19 02:49:01;;;;;;;2.65;0.75;;;;;;;14.98;46.10;99281.38;4899174;29;20033;-78
2021/05/19 02:51:34;;;;;;;1.92;0.52;;;;;;;15.22;45.88;99296.56;4899673;29;20109;-77
2021/05/19 02:54:00;;;;;;;2.17;0.80;;;;;;;15.05;46.14;99276.81;4899692;29;20028;-76
2021/05/19 02:56:26;;;;;;;1.88;0.70;;;;;;;15.15;45.93;99297.63;4871719;29;825083;-77
2021/05/19 02:58:52;;;;;;;4.20;1.38;;;;;;;14.78;45.99;99243.41;4900391;29;20040;-79
2021/05/19 03:01:18;;;;;;;2.85;0.68;;;;;;;15.33;45.91;99321.66;4900509;29;20039;-79
2021/05/19 03:03:44;;;;;;;4.15;1.02;;;;;;;15.33;45.95;99326.16;4900055;29;20035;-79
2021/05/19 03:06:09;;;;;;;2.13;0.80;;;;;;;15.03;46.09;99278.06;4900211;29;20027;-83
2021/05/19 03:08:35;;;;;;;2.30;1.73;;;;;;;15.19;45.97;99297.00;4899061;29;20435;-76
2021/05/19 03:11:00;;;;;;;5.25;1.10;;;;;;;14.92;46.09;99255.63;4900203;29;20051;-76
2021/05/19 03:13:26;;;;;;;5.22;1.05;;;;;;;15.24;46.11;99313.13;4899813;29;20024;-77
2021/05/19 03:15:51;;;;;;;4.13;1.40;;;;;;;15.24;46.42;99314.97;4900136;29;20420;-76
2021/05/19 03:18:17;;;;;;;4.65;1.60;;;;;;;15.25;46.59;99322.72;4900032;29;20032;-76
2021/05/19 03:20:42;;;;;;;5.30;1.40;;;;;;;14.83;46.62;99262.19;4899970;29;20083;-78
2021/05/19 03:23:08;;;;;;;5.22;1.90;;;;;;;15.04;46.78;99285.81;4900028;29;20064;-77
2021/05/19 03:25:33;;;;;;;4.47;1.52;;;;;;;14.96;46.56;99272.78;4899902;29;20032;-76
2021/05/19 03:27:59;;;;;;;6.93;1.85;;;;;;;14.66;46.73;99224.66;4899836;29;20044;-77
2021/05/19 03:30:24;;;;;;;5.53;1.25;;;;;;;14.81;46.97;99256.28;4899688;29;20039;-78
2021/05/19 03:32:50;;;;;;;3.20;1.40;;;;;;;15.04;46.81;99293.81;4899908;29;20029;-76
2021/05/19 03:35:15;;;;;;;4.85;1.30;;;;;;;15.37;46.71;99356.63;4898570;29;20028;-86
2021/05/19 03:37:42;;;;;;;4.03;1.30;;;;;;;15.04;46.82;99280.50;4899618;29;20212;-77
2021/05/19 03:40:10;;;;;;;3.35;1.25;;;;;;;15.41;46.65;99331.22;4899734;29;20075;-84
2021/05/19 03:42:36;;;;;;;4.00;1.55;;;;;;;15.55;46.57;99338.91;4899401;29;20043;-76
2021/05/19 03:45:04;;;;;;;4.28;1.38;;;;;;;14.83;46.84;99225.78;4899536;29;20039;-76
2021/05/19 03:47:30;;;;;;;6.10;1.85;;;;;;;14.98;46.96;99248.66;4899486;29;20030;-76
2021/05/19 03:49:55;;;;;;;5.93;1.55;;;;;;;15.50;47.09;99332.59;4899768;29;20032;-76
2021/05/19 03:52:21;;;;;;;3.85;1.13;;;;;;;15.03;46.72;99270.91;4899576;29;20439;-76
2021/05/19 03:54:46;;;;;;;2.03;1.10;;;;;;;15.50;46.61;99348.56;4898366;29;20352;-77
2021/05/19 03:57:12;;;;;;;4.22;1.27;;;;;;;15.07;46.70;99285.41;4899619;29;20452;-79
2021/05/19 03:59:37;;;;;;;5.13;1.42;;;;;;;15.31;46.75;99307.75;4898303;29;20131;-83
2021/05/19 04:02:04;;;;;;;3.20;1.52;;;;;;;15.42;46.47;99322.22;4898330;29;20586;-86
2021/05/19 04:04:29;;;;;;;4.18;1.45;;;;;;;15.24;46.48;99286.53;4898235;29;20032;-80
2021/05/19 04:06:55;;;;;;;5.13;1.40;;;;;;;15.65;46.48;99337.69;4899552;29;20029;-84
2021/05/19 04:09:20;;;;;;;8.48;1.50;;;;;;;15.30;46.11;99265.41;4899459;29;20420;-81
2021/05/19 04:11:46;;;;;;;5.00;1.08;;;;;;;15.70;45.78;99320.03;4899316;29;20034;-80
2021/05/19 04:14:12;;;;;;;4.38;1.45;;;;;;;15.98;45.98;99334.75;4899395;29;20329;-79
2021/05/19 04:16:38;;;;;;;9.30;1.65;;;;;;;16.04;45.73;99336.56;4899305;29;20036;-76
2021/05/19 04:19:05;;;;;;;5.55;1.23;;;;;;;16.07;45.64;99338.78;4899478;29;20056;-75
2021/05/19 04:21:31;;;;;;;9.13;1.40;;;;;;;16.12;45.80;99331.75;4899287;29;20028;-75
2021/05/19 04:23:57;;;;;;;8.25;1.52;;;;;;;16.19;45.36;99331.69;4899361;29;20033;-75
2021/05/19 04:26:23;;;;;;;7.75;1.58;;;;;;;15.85;45.38;99261.13;4900396;29;20039;-79
2021/05/19 04:28:48;;;;;;;5.32;1.88;;;;;;;16.06;45.20;99290.03;4903081;29;20028;-75
2021/05/19 04:31:14;;;;;;;4.57;1.50;;;;;;;16.36;45.09;99329.31;4901792;29;20231;-75
2021/05/19 04:33:39;;;;;;;6.72;2.92;;;;;;;16.30;45.27;99309.66;4902732;29;20431;-75
2021/05/19 04:36:05;;;;;;;10.32;2.67;;;;;;;16.48;45.35;99328.34;4902950;29;20029;-75
2021/05/19 04:38:32;;;;;;;7.55;2.38;;;;;;;16.54;45.46;99326.66;4901649;29;20032;-81
2021/05/19 04:40:58;;;;;;;7.93;2.78;;;;;;;16.29;45.23;99283.25;4901834;29;20036;-76
2021/05/19 04:43:23;;;;;;;6.88;2.80;;;;;;;16.44;45.44;99297.84;4904785;29;20032;-79
2021/05/19 04:45:49;;;;;;;9.05;2.95;;;;;;;16.18;45.48;99236.84;4902804;29;20471;-75
2021/05/19 04:48:15;;;;;;;11.15;2.63;;;;;;;16.77;45.68;99336.69;4902894;29;20036;-76
2021/05/19 04:50:40;;;;;;;5.47;2.63;;;;;;;16.82;45.56;99320.81;4902039;29;20502;-75
2021/05/19 04:53:06;;;;;;;5.53;2.83;;;;;;;16.64;45.26;99296.81;4902106;29;20024;-76
2021/05/19 04:55:32;;;;;;;7.78;2.40;;;;;;;16.87;45.09;99339.63;4901223;29;20028;-77
2021/05/19 04:57:58;;;;;;;8.93;2.35;;;;;;;16.88;44.91;99340.44;4902062;29;20096;-76
2021/05/19 05:00:24;;;;;;;4.45;1.85;;;;;;;16.51;44.83;99269.28;4902238;29;20039;-76
2021/05/19 05:02:50;;;;;;;4.28;1.90;;;;;;;16.56;45.00;99287.25;4902264;29;20405;-76
2021/05/19 05:05:15;;;;;;;5.32;2.38;;;;;;;16.93;45.57;99343.25;4901218;29;20029;-76
2021/05/19 05:07:41;;;;;;;4.85;1.75;;;;;;;16.88;45.39;99309.25;4901634;29;20466;-76
2021/05/19 05:10:08;;;;;;;4.30;1.77;;;;;;;17.06;45.83;99333.22;4902258;29;20092;-76
2021/05/19 05:12:34;;;;;;;6.60;1.92;;;;;;;17.11;46.19;99329.91;4901912;29;20420;-75
2021/05/19 05:15:00;;;;;;;5.22;1.75;;;;;;;17.04;46.01;99319.31;4902155;29;20358;-75
2021/05/19 05:17:26;;;;;;;7.25;2.38;;;;;;;17.06;46.20;99301.22;4900277;29;20029;-76
2021/05/19 05:19:51;;;;;;;4.95;2.08;;;;;;;17.28;45.95;99322.91;4901697;29;20111;-77
2021/05/19 05:22:17;;;;;;;7.78;2.47;;;;;;;17.16;46.30;99298.03;4900870;29;20028;-75
2021/05/19 05:24:42;;;;;;;5.40;2.33;;;;;;;17.30;46.49;99312.00;4901405;29;20028;-75
2021/05/19 05:27:08;;;;;;;8.73;2.80;;;;;;;17.04;46.31;99278.47;4901717;29;20039;-77
2021/05/19 05:29:33;;;;;;;8.45;2.70;;;;;;;16.93;46.21;99249.91;4901760;29;20055;-78
2021/05/19 05:32:00;;;;;;;7.45;2.90;;;;;;;17.32;46.17;99313.41;4901731;29;20448;-75
2021/05/19 05:34:25;;;;;;;5.60;2.90;;;;;;;17.43;46.34;99327.81;4901372;29;20048;-75
2021/05/19 05:36:51;;;;;;;14.35;3.05;;;;;;;17.41;46.25;99319.25;4900582;29;20028;-77
2021/05/19 05:39:18;;;;;;;6.25;2.50;;;;;;;17.15;46.22;99269.75;4901732;29;20039;-80
2021/05/19 05:41:43;;;;;;;10.65;2.92;;;;;;;17.69;46.29;99331.97;4900682;29;20104;-77
2021/05/19 05:44:09;;;;;;;6.03;2.50;;;;;;;17.33;46.26;99277.69;4901439;29;20127;-86
2021/05/19 05:46:34;;;;;;;4.00;1.67;;;;;;;17.58;45.65;99293.50;4897499;29;20021;-76
2021/05/19 05:49:00;;;;;;;5.97;2.15;;;;;;;17.93;45.64;99338.22;4898749;29;20040;-79
2021/05/19 05:51:26;;;;;;;3.22;1.95;;;;;;;18.03;45.80;99338.44;4899981;29;20042;-85
2021/05/19 05:53:52;;;;;;;4.65;2.33;;;;;;;18.12;45.53;99339.72;4899968;29;20025;-76
2021/05/19 05:56:18;;;;;;;4.47;2.30;;;;;;;17.97;45.30;99313.47;4886765;29;20053;-85
2021/05/19 05:58:44;;;;;;;2.83;1.50;;;;;;;17.81;45.84;99275.91;4899970;29;20328;-79
2021/05/19 06:01:10;;;;;;;5.80;2.60;;;;;;;18.37;45.75;99351.00;4901391;29;20060;-79
2021/05/19 06:03:36;;;;;;;2.65;1.70;;;;;;;18.42;45.90;99340.41;4901081;29;20025;-75
2021/05/19 06:06:01;;;;;;;2.75;1.50;;;;;;;18.43;45.83;99317.97;4904775;29;20107;-82
2021/05/19 06:08:27;;;;;;;4.25;1.35;;;;;;;18.69;45.76;99345.31;4919177;29;20226;-82
2021/05/19 06:10:52;;;;;;;1.10;1.00;;;;;;;18.42;45.44;99273.59;4905984;29;20029;-79
2021/05/19 06:13:18;;;;;;;1.20;1.10;;;;;;;18.70;45.54;99290.78;4882550;29;20159;-76
2021/05/19 06:15:43;;;;;;;2.47;1.45;;;;;;;19.08;45.24;99319.63;4850443;29;20044;-79
2021/05/19 06:18:09;;;;;;;1.83;1.10;;;;;;;18.86;44.97;99270.50;4865621;29;20032;-83
2021/05/19 06:20:34;;;;;;;4.18;1.45;;;;;;;18.98;45.08;99268.59;4885324;29;20388;-81
2021/05/19 06:23:00;;;;;;;2.70;1.45;;;;;;;19.42;45.03;99323.22;4900740;29;20032;-86
2021/05/19 06:25:26;;;;;;;2.83;1.80;;;;;;;19.52;44.84;99315.41;4882411;29;20132;-83
2021/05/19 06:27:51;;;;;;;2.17;1.25;;;;;;;19.65;44.77;99314.28;4898304;29;20360;-79
2021/05/19 06:30:17;;;;;;;6.20;1.85;;;;;;;19.27;44.77;99237.25;4899021;29;20084;-87
2021/05/19 06:32:43;;;;;;;2.85;1.35;;;;;;;19.71;44.55;99283.84;4893463;29;20024;-84
2021/05/19 06:35:09;;;;;;;2.20;1.48;;;;;;;19.60;44.51;99269.47;4898664;29;20459;-80
2021/05/19 06:37:37;;;;;;;5.15;1.30;;;;;;;20.05;43.14;99308.75;4896844;29;20036;-79
2021/05/19 06:40:04;;;;;;;4.45;2.25;;;;;;;19.61;40.33;99214.84;4881647;29;20080;-82
2021/05/19 06:42:30;;;;;;;3.83;1.55;;;;;;;20.20;39.35;99305.50;4911654;29;20043;-76
2021/05/19 06:44:56;;;;;;;1.40;1.00;;;;;;;19.60;38.61;99175.72;4900000;29;20036;-79
2021/05/19 06:47:21;;;;;;;2.70;0.90;;;;;;;19.97;38.28;99221.53;4895648;29;20036;-80
2021/05/19 06:49:47;;;;;;;3.40;0.98;;;;;;;19.87;37.95;99183.06;4892421;29;20406;-78
2021/05/19 06:52:12;;;;;;;2.97;1.20;;;;;;;20.65;37.27;99283.88;4889974;29;20416;-78
2021/05/19 06:54:38;;;;;;;1.50;0.65;;;;;;;20.69;37.42;99282.31;4897615;29;20119;-77
2021/05/19 06:57:04;;;;;;;4.38;1.42;;;;;;;20.76;37.53;99288.28;4895454;29;20140;-78
2021/05/19 06:59:29;;;;;;;1.40;1.00;;;;;;;20.53;37.62;99221.50;4892865;29;20095;-79
2021/05/19 07:01:55;;;;;;;3.60;1.13;;;;;;;20.96;38.27;99273.50;4895820;29;20033;-79
2021/05/19 07:04:20;;;;;;;5.57;1.05;;;;;;;20.93;38.37;99256.03;4898346;29;20357;-80
2021/05/19 07:06:46;;;;;;;2.10;1.10;;;;;;;21.08;38.36;99275.00;4898723;29;20044;-79
2021/05/19 07:09:12;;;;;;;1.52;0.80;;;;;;;21.13;37.83;99271.53;4897700;29;20036;-79
2021/05/19 07:11:37;;;;;;;3.60;0.93;;;;;;;20.90;37.92;99233.19;4898094;29;20371;-80
2021/05/19 07:14:05;;;;;;;2.20;1.35;;;;;;;21.25;38.21;99275.72;4894177;29;20150;-79
2021/05/19 07:16:33;;;;;;;1.88;0.88;;;;;;;20.85;37.94;99190.22;4897591;29;20063;-78
2021/05/19 07:18:58;;;;;;;3.05;2.08;;;;;;;21.41;37.60;99255.19;4897628;29;20037;-79
2021/05/19 07:21:24;;;;;;;1.38;0.98;;;;;;;21.13;37.36;99212.47;4895019;29;20032;-79
2021/05/19 07:23:50;;;;;;;4.88;1.67;;;;;;;21.36;37.19;99222.91;4891164;29;20024;-78
2021/05/19 07:26:17;;;;;;;2.47;1.30;;;;;;;21.60;37.39;99241.41;4896009;29;20523;-80
2021/05/19 07:28:42;;;;;;;3.10;1.67;;;;;;;21.67;37.42;99245.47;4883518;29;20488;-79
2021/05/19 07:31:08;;;;;;;10.45;5.50;;;;;;;21.57;37.55;99215.84;4896128;29;20035;-82
2021/05/19 07:33:33;;;;;;;3.30;2.40;;;;;;;21.77;37.41;99232.13;4897769;29;20032;-78
2021/05/19 07:35:59;;;;;;;8.52;5.10;;;;;;;21.91;37.60;99247.78;4897150;29;20029;-87
2021/05/19 07:38:24;;;;;;;4.60;2.65;;;;;;;22.00;37.42;99233.59;4896638;29;20368;-80
2021/05/19 07:40:50;;;;;;;3.05;1.70;;;;;;;21.73;37.27;99179.97;4897704;29;20439;-80
2021/05/19 07:43:16;;;;;;;2.45;1.10;;;;;;;21.83;36.44;99196.16;4897989;29;20132;-78
2021/05/19 07:45:43;;;;;;;2.03;1.20;;;;;;;22.20;36.60;99233.75;4896408;29;20044;-78
2021/05/19 07:48:10;;;;;;;3.30;1.40;;;;;;;22.15;36.89;99211.41;4893397;29;20060;-79
2021/05/19 07:50:36;;;;;;;2.45;1.25;;;;;;;21.89;37.37;99149.41;4896074;29;20032;-81
2021/05/19 07:53:02;;;;;;;2.33;1.33;;;;;;;21.98;37.82;99148.91;4895783;29;20509;-80
2021/05/19 08:03:02;;;;;;;3.45;1.40;;;;;;;22.67;37.34;99203.28;4885033;29;20060;-78
2021/05/19 08:05:27;;;;;;;3.58;1.65;;;;;;;22.57;36.92;99189.81;4897969;29;20060;-80
2021/05/19 08:07:53;;;;;;;3.83;2.00;;;;;;;22.76;36.92;99204.38;4897490;29;20067;-81
2021/05/19 08:10:19;;;;;;;3.10;1.40;;;;;;;22.89;36.72;99205.78;4897354;29;20032;-81
2021/05/19 08:12:44;;;;;;;1.65;1.25;;;;;;;23.04;35.61;99207.72;4896790;29;20385;-79
2021/05/19 08:15:10;;;;;;;1.42;1.15;;;;;;;22.72;35.89;99148.66;4895822;29;20029;-79
2021/05/19 08:17:36;;;;;;;2.28;1.50;;;;;;;22.71;36.60;99150.53;4894918;29;20644;-81
2021/05/19 08:20:04;;;;;;;8.63;1.52;;;;;;;23.30;36.37;99222.00;4898494;29;20032;-80
2021/05/19 08:22:29;;;;;;;2.00;1.20;;;;;;;23.39;36.03;99204.22;4895991;29;20036;-80
2021/05/19 08:24:55;;;;;;;2.83;1.48;;;;;;;23.34;35.86;99179.97;4896229;29;20080;-81
2021/05/19 08:27:20;;;;;;;3.05;1.17;;;;;;;23.34;35.82;99164.63;4898561;29;20060;-80
2021/05/19 08:29:46;;;;;;;3.17;1.10;;;;;;;23.33;35.32;99137.97;4897253;29;20043;-85
2021/05/19 08:32:12;;;;;;;4.20;1.25;;;;;;;23.72;35.37;99184.81;4897880;29;20039;-79
2021/05/19 08:34:38;;;;;;;3.42;1.20;;;;;;;23.85;34.77;99172.69;4880844;29;20037;-81
2021/05/19 08:37:04;;;;;;;2.35;1.95;;;;;;;23.60;34.42;99116.91;4894914;29;20089;-79
2021/05/19 08:39:29;;;;;;;1.60;1.20;;;;;;;24.11;33.50;99176.09;4897439;29;20029;-81
2021/05/19 08:41:55;;;;;;;3.10;1.30;;;;;;;24.14;33.01;99169.34;4893567;29;20371;-80
2021/05/19 08:44:20;;;;;;;2.65;1.60;;;;;;;24.18;32.72;99154.22;4897112;29;20032;-83
2021/05/19 08:46:48;;;;;;;3.67;1.42;;;;;;;24.39;32.40;99171.97;4894518;29;20068;-81
2021/05/19 08:49:14;;;;;;;2.58;1.02;;;;;;;24.16;32.43;99114.03;4898397;29;20188;-80
2021/05/19 08:51:40;;;;;;;2.28;1.33;;;;;;;24.70;32.07;99172.63;4896723;29;20087;-84
2021/05/19 08:54:08;;;;;;;4.43;1.20;;;;;;;24.65;32.17;99157.28;4887937;29;20127;-87
2021/05/19 08:56:39;;;;;;;3.15;1.35;;;;;;;24.65;32.04;99138.38;4896380;29;20048;-80
2021/05/19 08:59:04;;;;;;;4.20;1.55;;;;;;;24.47;32.57;99082.31;4898465;29;20132;-83
2021/05/19 09:01:39;;;;;;;3.15;1.67;;;;;;;25.25;32.68;99174.16;4896561;29;20495;-79
2021/05/19 09:04:06;;;;;;;4.22;1.63;;;;;;;25.40;32.53;99164.31;4898239;29;20064;-80
2021/05/19 09:06:32;;;;;;;4.30;2.30;;;;;;;25.53;32.58;99159.06;4896216;29;20359;-80
2021/05/19 09:08:57;;;;;;;4.28;1.25;;;;;;;25.70;32.19;99155.13;4897983;29;20037;-79
2021/05/19 09:11:23;;;;;;;2.30;1.23;;;;;;;25.65;31.69;99150.56;4897370;29;20040;-79
2021/05/19 09:13:48;;;;;;;4.07;1.38;;;;;;;25.38;31.77;99077.31;4900490;29;20454;-82
2021/05/19 09:16:26;;;;;;;2.97;1.10;;;;;;;26.04;31.73;99136.13;4899297;29;20428;-80
2021/05/19 09:18:54;;;;;;;2.75;1.30;;;;;;;26.20;31.62;99130.22;4900294;29;20033;-79
2021/05/19 09:21:41;;;;;;;3.45;1.70;;;;;;;26.33;31.09;99117.91;4901770;29;20032;-81
2021/05/19 09:24:14;;;;;;;4.13;1.40;;;;;;;26.41;30.60;99117.25;4901408;29;20032;-82
2021/05/19 09:27:06;;;;;;;2.85;1.40;;;;;;;26.54;30.12;99119.22;4898478;29;20040;-82
2021/05/19 09:29:37;;;;;;;7.05;1.52;;;;;;;26.62;29.70;99115.03;4896187;29;20067;-81
2021/05/19 09:32:04;;;;;;;3.80;1.20;;;;;;;26.84;29.34;99106.34;4898408;29;20032;-80
2021/05/19 09:34:35;;;;;;;2.08;1.30;;;;;;;26.56;29.47;99019.53;4900743;29;20032;-81
2021/05/19 09:37:14;;;;;;;;;;;;;;;27.26;29.36;99093.72;4900486;29;20028;-80
2021/05/19 09:40:07;;;;;;;5.75;1.98;;;;;;;27.15;28.89;99085.78;4898404;29;20018;-81
2021/05/19 09:42:36;;;;;;;1.75;0.98;;;;;;;26.99;28.72;99097.19;4899192;29;20108;-80
2021/05/19 09:45:24;;;;;;;2.47;1.52;;;;;;;26.89;29.00;99088.09;4896559;29;20036;-80
2021/05/19 09:47:52;;;;;;;4.05;1.88;;;;;;;26.84;29.27;99084.66;4879972;29;20432;-80
2021/05/19 09:50:24;;;;;;;3.05;1.75;;;;;;;26.71;29.04;99083.50;4897620;29;20048;-78
2021/05/19 09:53:10;;;;;;;4.03;1.30;;;;;;;26.69;28.94;99076.75;4895952;29;20036;-79
2021/05/19 09:55:37;;;;;;;7.00;1.48;;;;;;;26.64;28.72;99068.72;4896442;29;20353;-79
2021/05/19 09:58:03;;;;;;;3.67;2.08;;;;;;;26.23;28.72;98998.94;4898184;29;20036;-79
2021/05/19 10:00:30;;;;;;;2.38;1.27;;;;;;;26.38;28.73;99016.88;4899619;29;20107;-80
2021/05/19 10:02:56;;;;;;;3.10;1.17;;;;;;;26.28;28.24;99001.56;4882363;29;20028;-81
2021/05/19 10:05:27;;;;;;;2.15;1.50;;;;;;;26.64;28.29;99047.06;4900561;29;20032;-84
2021/05/19 10:07:54;;;;;;;;;;;;;;;26.53;28.01;99041.78;4900196;29;20040;-88
2021/05/19 10:10:20;;;;;;;2.00;1.48;;;;;;;26.50;28.96;99036.97;4898857;29;20002;-79
2021/05/19 10:12:47;;;;;;;3.13;1.73;;;;;;;26.58;28.80;99038.19;4899689;29;20037;-80
2021/05/19 10:15:17;;;;;;;4.25;1.40;;;;;;;26.40;28.14;99011.97;4897077;29;20025;-87
2021/05/19 10:17:47;;;;;;;1.60;1.42;;;;;;;26.55;28.50;99039.59;4896168;29;20115;-82
2021/05/19 10:20:15;;;;;;;4.60;1.35;;;;;;;26.39;27.63;99018.47;4897175;29;20487;-79
2021/05/19 10:22:47;;;;;;;4.22;2.33;;;;;;;26.41;28.68;99038.75;4898163;29;20396;-79
2021/05/19 10:25:39;;;;;;;3.75;1.33;;;;;;;26.43;27.92;99033.84;4900181;29;20033;-83
2021/05/19 10:28:16;;;;;;;2.50;1.13;;;;;;;26.43;28.73;99025.72;4900626;29;20033;-81
2021/05/19 10:30:46;;;;;;;2.25;1.10;;;;;;;26.20;28.61;98994.09;4898625;29;20463;-78
2021/05/19 10:33:30;;;;;;;4.67;1.33;;;;;;;26.38;28.40;99023.09;4898158;29;20036;-78
2021/05/19 10:35:57;;;;;;;2.65;1.30;;;;;;;26.32;28.85;99016.09;4897514;29;20336;-81
2021/05/19 10:38:36;;;;;;;2.65;1.90;;;;;;;26.24;29.15;99003.25;4898878;29;20045;-78
2021/05/19 10:41:04;;;;;;;2.97;1.40;;;;;;;25.97;29.33;98956.00;4897401;29;20047;-77
2021/05/19 10:43:57;;;;;;;3.10;1.42;;;;;;;26.35;29.37;98996.59;4897722;29;20033;-77
2021/05/19 10:57:47;;;;;;;3.90;1.52;;;;;;;26.13;29.95;98970.13;4896541;29;20481;-79
2021/05/19 11:00:24;;;;;;;3.65;1.52;;;;;;;26.13;29.88;98967.41;4880495;29;20210;-79
2021/05/19 11:03:04;;;;;;;4.78;1.48;;;;;;;26.18;29.92;98967.34;4896492;29;20021;-79
2021/05/19 11:05:32;;;;;;;4.57;1.63;;;;;;;26.27;29.49;98960.16;4899304;29;20515;-79
2021/05/19 11:08:07;;;;;;;6.43;2.22;;;;;;;26.53;29.32;98959.78;4898598;29;20407;-79
2021/05/19 11:10:32;;;;;;;6.20;2.53;;;;;;;26.86;29.35;98955.16;4898115;29;20037;-79
2021/05/19 11:12:58;;;;;;;7.68;4.75;;;;;;;27.25;29.88;98911.31;4899488;29;20087;-79
2021/05/19 11:15:43;;;;;;;3.25;1.92;;;;;;;28.27;28.43;98960.69;4879923;29;20043;-79
2021/05/19 11:18:19;;;;;;;4.32;1.92;;;;;;;28.88;25.80;98959.97;4891592;29;20474;-79
2021/05/19 11:20:46;;;;;;;3.83;1.38;;;;;;;29.20;25.70;98937.09;4880031;29;20388;-80
2021/05/19 11:23:13;;;;;;;6.05;1.63;;;;;;;29.44;25.31;98941.34;4898233;29;20059;-78
2021/05/19 11:25:40;;;;;;;4.82;1.70;;;;;;;29.70;24.65;98940.25;4899045;29;20033;-78
2021/05/19 11:28:06;;;;;;;4.28;1.92;;;;;;;30.04;24.83;98915.03;4888841;29;20040;-80
2021/05/19 11:30:31;;;;;;;7.63;2.80;;;;;;;30.25;24.62;98877.03;4896496;29;20036;-79
2021/05/19 11:33:12;;;;;;;2.65;1.58;;;;;;;30.84;23.96;98925.47;4897288;29;20029;-82
2021/05/19 11:35:38;;;;;;;4.97;1.73;;;;;;;30.88;23.29;98912.78;4895675;29;20040;-84
2021/05/19 11:38:05;;;;;;;5.40;1.98;;;;;;;31.10;23.03;98912.50;4889865;29;20111;-84
2021/05/19 11:40:39;;;;;;;9.55;2.08;;;;;;;31.38;22.87;98910.16;4882391;29;20398;-82
2021/05/19 11:43:05;;;;;;;3.42;1.70;;;;;;;31.13;22.60;98886.50;4897563;29;20040;-83
2021/05/19 11:45:31;;;;;;;7.10;2.78;;;;;;;31.05;22.58;98844.53;4897110;29;20029;-83
2021/05/19 11:47:57;;;;;;;8.20;1.40;;;;;;;31.44;22.35;98897.94;4895827;29;20364;-81
2021/05/19 11:50:25;;;;;;;2.35;1.38;;;;;;;31.20;21.69;98854.88;4897414;29;20044;-79
2021/05/19 11:52:52;;;;;;;4.63;2.53;;;;;;;31.33;22.21;98894.00;4894759;29;20035;-80
2021/05/19 11:55:41;;;;;;;8.57;3.95;;;;;;;31.48;22.17;98890.66;4908498;29;20039;-80
2021/05/19 11:58:23;;;;;;;4.00;1.92;;;;;;;31.47;21.48;98893.72;4893900;29;20045;-79
2021/05/19 12:01:01;;;;;;;2.42;1.02;;;;;;;31.35;21.17;98877.28;4901394;29;20428;-82